sensor_id;sensor_type;location;lat;lon;timestamp;pressure;altitude;pressure_sealevel;temperature;humidity
62420;BME280;48460;51.616;5.426;2023-03-19T00:02:19;100902.06;;;9.43;100.00
62420;BME280;48460;51.616;5.426;2023-03-19T00:04:47;100901.28;;;9.41;100.00
62420;BME280;48460;51.616;5.426;2023-03-19T00:07:14;100913.63;;;9.39;100.00
62420;BME280;48460;51.616;5.426;2023-03-19T00:09:43;100934.13;;;9.50;100.00
62420;BME280;48460;51.616;5.426;2023-03-19T00:12:29;100915.25;;;9.42;100.00
62420;BME280;48460;51.616;5.426;2023-03-19T00:15:08;100910.69;;;9.45;100.00
62420;BME280;48460;51.616;5.426;2023-03-19T00:17:39;100917.44;;;9.51;100.00
62420;BME280;48460;51.616;5.426;2023-03-19T00:20:09;100921.84;;;9.50;100.00
62420;BME280;48460;51.616;5.426;2023-03-19T00:22:38;100911.69;;;9.43;100.00
62420;BME280;48460;51.616;5.426;2023-03-19T00:25:13;100921.44;;;9.41;100.00
62420;BME280;48460;51.616;5.426;2023-03-19T00:27:39;100916.25;;;9.39;100.00
62420;BME280;48460;51.616;5.426;2023-03-19T00:30:06;100923.22;;;9.40;100.00
62420;BME280;48460;51.616;5.426;2023-03-19T00:32:37;100925.84;;;9.40;100.00
62420;BME280;48460;51.616;5.426;2023-03-19T00:35:05;100942.16;;;9.47;100.00
62420;BME280;48460;51.616;5.426;2023-03-19T00:37:36;100928.31;;;9.43;100.00
62420;BME280;48460;51.616;5.426;2023-03-19T00:40:03;100926.81;;;9.38;100.00
62420;BME280;48460;51.616;5.426;2023-03-19T00:42:36;100930.16;;;9.41;100.00
62420;BME280;48460;51.616;5.426;2023-03-19T00:45:04;100932.84;;;9.40;100.00
62420;BME280;48460;51.616;5.426;2023-03-19T00:47:32;100929.50;;;9.36;100.00
62420;BME280;48460;51.616;5.426;2023-03-19T00:50:02;100921.72;;;9.34;100.00
62420;BME280;48460;51.616;5.426;2023-03-19T00:52:30;100928.66;;;9.35;100.00
62420;BME280;48460;51.616;5.426;2023-03-19T00:55:16;100919.38;;;9.28;100.00
62420;BME280;48460;51.616;5.426;2023-03-19T00:57:52;100947.72;;;9.39;100.00
62420;BME280;48460;51.616;5.426;2023-03-19T01:00:28;100935.53;;;9.38;100.00
62420;BME280;48460;51.616;5.426;2023-03-19T01:02:56;100939.81;;;9.41;100.00
62420;BME280;48460;51.616;5.426;2023-03-19T01:05:36;100925.31;;;9.32;100.00
62420;BME280;48460;51.616;5.426;2023-03-19T01:08:01;100940.94;;;9.35;100.00
62420;BME280;48460;51.616;5.426;2023-03-19T01:10:34;100936.66;;;9.32;100.00
62420;BME280;48460;51.616;5.426;2023-03-19T01:13:11;100932.53;;;9.27;100.00
62420;BME280;48460;51.616;5.426;2023-03-19T01:15:51;100938.44;;;9.32;100.00
62420;BME280;48460;51.616;5.426;2023-03-19T01:18:26;100939.34;;;9.31;100.00
62420;BME280;48460;51.616;5.426;2023-03-19T01:20:54;100921.41;;;9.22;100.00
62420;BME280;48460;51.616;5.426;2023-03-19T01:23:20;100929.22;;;9.23;100.00
62420;BME280;48460;51.616;5.426;2023-03-19T01:25:48;100921.53;;;9.19;100.00
62420;BME280;48460;51.616;5.426;2023-03-19T01:28:14;100925.94;;;9.18;100.00
62420;BME280;48460;51.616;5.426;2023-03-19T01:30:48;100925.88;;;9.20;100.00
62420;BME280;48460;51.616;5.426;2023-03-19T01:33:15;100924.16;;;9.19;100.00
62420;BME280;48460;51.616;5.426;2023-03-19T01:35:51;100925.78;;;9.21;100.00
62420;BME280;48460;51.616;5.426;2023-03-19T01:38:27;100930.19;;;9.21;100.00
62420;BME280;48460;51.616;5.426;2023-03-19T01:40:52;100918.84;;;9.20;100.00
62420;BME280;48460;51.616;5.426;2023-03-19T01:43:30;100927.56;;;9.21;100.00
62420;BME280;48460;51.616;5.426;2023-03-19T01:49:04;100936.72;;;9.31;100.00
62420;BME280;48460;51.616;5.426;2023-03-19T01:51:56;100935.88;;;9.30;100.00
62420;BME280;48460;51.616;5.426;2023-03-19T01:54:27;100924.09;;;9.20;100.00
62420;BME280;48460;51.616;5.426;2023-03-19T01:56:58;100928.50;;;9.20;100.00
62420;BME280;48460;51.616;5.426;2023-03-19T01:59:34;100943.03;;;9.27;100.00
62420;BME280;48460;51.616;5.426;2023-03-19T02:05:11;100929.06;;;9.26;100.00
62420;BME280;48460;51.616;5.426;2023-03-19T02:07:40;100919.50;;;9.25;100.00
62420;BME280;48460;51.616;5.426;2023-03-19T02:10:15;100920.41;;;9.24;100.00
62420;BME280;48460;51.616;5.426;2023-03-19T02:12:46;100939.28;;;9.32;100.00
62420;BME280;48460;51.616;5.426;2023-03-19T02:15:16;100929.06;;;9.26;100.00
62420;BME280;48460;51.616;5.426;2023-03-19T02:17:45;100932.53;;;9.27;100.00
62420;BME280;48460;51.616;5.426;2023-03-19T02:20:32;100932.41;;;9.30;100.00
62420;BME280;48460;51.616;5.426;2023-03-19T02:28:20;100940.63;;;9.22;100.00
62420;BME280;48460;51.616;5.426;2023-03-19T02:31:15;100930.28;;;9.19;100.00
62420;BME280;48460;51.616;5.426;2023-03-19T02:36:51;100925.38;;;9.11;100.00
62420;BME280;48460;51.616;5.426;2023-03-19T02:39:32;100925.41;;;9.10;100.00
62420;BME280;48460;51.616;5.426;2023-03-19T02:41:59;100931.69;;;9.07;100.00
62420;BME280;48460;51.616;5.426;2023-03-19T02:44:26;100934.34;;;9.06;100.00
62420;BME280;48460;51.616;5.426;2023-03-19T02:46:55;100948.13;;;9.11;100.00
62420;BME280;48460;51.616;5.426;2023-03-19T02:49:28;100955.06;;;9.12;100.00
62420;BME280;48460;51.616;5.426;2023-03-19T02:52:06;100938.69;;;9.07;100.00
62420;BME280;48460;51.616;5.426;2023-03-19T02:54:43;100947.16;;;9.13;100.00
62420;BME280;48460;51.616;5.426;2023-03-19T02:57:22;100944.66;;;9.10;100.00
62420;BME280;48460;51.616;5.426;2023-03-19T03:00:02;100948.97;;;9.11;100.00
62420;BME280;48460;51.616;5.426;2023-03-19T03:02:38;100955.78;;;9.16;100.00
62420;BME280;48460;51.616;5.426;2023-03-19T03:05:13;100943.16;;;9.05;100.00
62420;BME280;48460;51.616;5.426;2023-03-19T03:07:53;100959.34;;;9.15;100.00
62420;BME280;48460;51.616;5.426;2023-03-19T03:10:24;100955.28;;;9.07;100.00
62420;BME280;48460;51.616;5.426;2023-03-19T03:12:53;100958.34;;;9.17;100.00
62420;BME280;48460;51.616;5.426;2023-03-19T03:15:29;100954.09;;;9.15;100.00
62420;BME280;48460;51.616;5.426;2023-03-19T03:18:04;100946.41;;;9.10;100.00
62420;BME280;48460;51.616;5.426;2023-03-19T03:20:30;100949.81;;;9.12;100.00
62420;BME280;48460;51.616;5.426;2023-03-19T03:23:07;100937.78;;;9.08;100.00
62420;BME280;48460;51.616;5.426;2023-03-19T03:25:40;100951.41;;;9.16;100.00
62420;BME280;48460;51.616;5.426;2023-03-19T03:28:08;100949.03;;;9.10;100.00
62420;BME280;48460;51.616;5.426;2023-03-19T03:30:46;100950.22;;;9.03;100.00
62420;BME280;48460;51.616;5.426;2023-03-19T03:33:19;100955.47;;;9.03;100.00
62420;BME280;48460;51.616;5.426;2023-03-19T03:35:47;100956.41;;;9.02;100.00
62420;BME280;48460;51.616;5.426;2023-03-19T03:38:22;100945.31;;;8.95;100.00
62420;BME280;48460;51.616;5.426;2023-03-19T03:40:59;100933.41;;;8.88;100.00
62420;BME280;48460;51.616;5.426;2023-03-19T03:43:29;100951.69;;;8.89;100.00
62420;BME280;48460;51.616;5.426;2023-03-19T03:46:02;100950.38;;;8.79;100.00
62420;BME280;48460;51.616;5.426;2023-03-19T03:48:28;100956.47;;;8.80;100.00
62420;BME280;48460;51.616;5.426;2023-03-19T03:50:59;100954.50;;;8.64;100.00
62420;BME280;48460;51.616;5.426;2023-03-19T03:53:28;100957.97;;;8.65;100.00
62420;BME280;48460;51.616;5.426;2023-03-19T03:56:01;100955.56;;;8.60;100.00
62420;BME280;48460;51.616;5.426;2023-03-19T03:58:31;100954.88;;;8.55;100.00
62420;BME280;48460;51.616;5.426;2023-03-19T04:01:15;100967.19;;;8.53;100.00
62420;BME280;48460;51.616;5.426;2023-03-19T04:03:56;100963.00;;;8.49;100.00
62420;BME280;48460;51.616;5.426;2023-03-19T04:06:28;100954.47;;;8.44;100.00
62420;BME280;48460;51.616;5.426;2023-03-19T04:09:03;100965.88;;;8.43;100.00
62420;BME280;48460;51.616;5.426;2023-03-19T04:11:29;100977.16;;;8.45;100.00
62420;BME280;48460;51.616;5.426;2023-03-19T04:14:03;100949.69;;;8.32;100.00
62420;BME280;48460;51.616;5.426;2023-03-19T04:16:34;100957.56;;;8.32;100.00
62420;BME280;48460;51.616;5.426;2023-03-19T04:19:23;100962.69;;;8.35;100.00
62420;BME280;48460;51.616;5.426;2023-03-19T04:21:58;100971.72;;;8.28;100.00
62420;BME280;48460;51.616;5.426;2023-03-19T04:24:43;100961.50;;;8.21;100.00
62420;BME280;48460;51.616;5.426;2023-03-19T04:27:11;100965.13;;;8.17;100.00
62420;BME280;48460;51.616;5.426;2023-03-19T04:29:57;100968.78;;;8.13;100.00
62420;BME280;48460;51.616;5.426;2023-03-19T04:32:40;100971.53;;;8.10;100.00
62420;BME280;48460;51.616;5.426;2023-03-19T04:35:06;100966.53;;;8.04;100.00
62420;BME280;48460;51.616;5.426;2023-03-19T04:37:36;100983.78;;;8.10;100.00
62420;BME280;48460;51.616;5.426;2023-03-19T04:40:15;100960.69;;;7.97;100.00
62420;BME280;48460;51.616;5.426;2023-03-19T04:42:48;100959.81;;;7.97;100.00
62420;BME280;48460;51.616;5.426;2023-03-19T04:45:19;100964.22;;;7.96;100.00
62420;BME280;48460;51.616;5.426;2023-03-19T04:48:12;100969.16;;;8.04;100.00
62420;BME280;48460;51.616;5.426;2023-03-19T04:50:46;100972.06;;;7.96;100.00
62420;BME280;48460;51.616;5.426;2023-03-19T04:53:26;100967.06;;;7.90;100.00
62420;BME280;48460;51.616;5.426;2023-03-19T04:55:55;100975.00;;;7.89;100.00
62420;BME280;48460;51.616;5.426;2023-03-19T04:58:38;100976.09;;;7.83;100.00
62420;BME280;48460;51.616;5.426;2023-03-19T05:01:17;100991.56;;;7.89;100.00
62420;BME280;48460;51.616;5.426;2023-03-19T05:03:43;100991.97;;;7.79;100.00
62420;BME280;48460;51.616;5.426;2023-03-19T05:06:16;100983.31;;;7.76;100.00
62420;BME280;48460;51.616;5.426;2023-03-19T05:08:47;100996.22;;;7.81;100.00
62420;BME280;48460;51.616;5.426;2023-03-19T05:11:15;100998.16;;;7.76;100.00
62420;BME280;48460;51.616;5.426;2023-03-19T05:13:53;101003.59;;;7.71;100.00
62420;BME280;48460;51.616;5.426;2023-03-19T05:16:31;101010.50;;;7.72;100.00
62420;BME280;48460;51.616;5.426;2023-03-19T05:19:33;101001.13;;;7.67;100.00
62420;BME280;48460;51.616;5.426;2023-03-19T05:22:01;100999.59;;;7.61;100.00
62420;BME280;48460;51.616;5.426;2023-03-19T05:24:47;101009.09;;;7.64;100.00
62420;BME280;48460;51.616;5.426;2023-03-19T05:27:15;101012.63;;;7.63;100.00
62420;BME280;48460;51.616;5.426;2023-03-19T05:29:51;101005.16;;;7.52;100.00
62420;BME280;48460;51.616;5.426;2023-03-19T05:32:31;101007.84;;;7.50;100.00
62420;BME280;48460;51.616;5.426;2023-03-19T05:35:07;101012.91;;;7.55;100.00
62420;BME280;48460;51.616;5.426;2023-03-19T05:37:35;101015.69;;;7.50;100.00
62420;BME280;48460;51.616;5.426;2023-03-19T05:40:01;101013.31;;;7.44;100.00
62420;BME280;48460;51.616;5.426;2023-03-19T05:42:31;101013.41;;;7.41;100.00
62420;BME280;48460;51.616;5.426;2023-03-19T05:45:02;101005.72;;;7.37;100.00
62420;BME280;48460;51.616;5.426;2023-03-19T05:47:39;101022.84;;;7.45;100.00
62420;BME280;48460;51.616;5.426;2023-03-19T05:50:33;101015.28;;;7.38;100.00
62420;BME280;48460;51.616;5.426;2023-03-19T05:53:01;101016.28;;;7.34;100.00
62420;BME280;48460;51.616;5.426;2023-03-19T05:55:34;101027.47;;;7.39;100.00
62420;BME280;48460;51.616;5.426;2023-03-19T05:58:00;101037.84;;;7.40;100.00
62420;BME280;48460;51.616;5.426;2023-03-19T06:00:54;101030.88;;;7.41;100.00
62420;BME280;48460;51.616;5.426;2023-03-19T06:03:30;101041.25;;;7.44;100.00
62420;BME280;48460;51.616;5.426;2023-03-19T06:05:58;101024.84;;;7.39;100.00
62420;BME280;48460;51.616;5.426;2023-03-19T06:08:34;101038.78;;;7.39;100.00
62420;BME280;48460;51.616;5.426;2023-03-19T06:11:02;101045.69;;;7.40;100.00
62420;BME280;48460;51.616;5.426;2023-03-19T06:13:28;101050.94;;;7.40;100.00
62420;BME280;48460;51.616;5.426;2023-03-19T06:16:03;101046.00;;;7.33;100.00
62420;BME280;48460;51.616;5.426;2023-03-19T06:18:40;101046.00;;;7.33;100.00
62420;BME280;48460;51.616;5.426;2023-03-19T06:21:15;101048.66;;;7.31;100.00
62420;BME280;48460;51.616;5.426;2023-03-19T06:23:43;101070.13;;;7.41;100.00
62420;BME280;48460;51.616;5.426;2023-03-19T06:26:14;101057.31;;;7.33;100.00
62420;BME280;48460;51.616;5.426;2023-03-19T06:28:42;101061.47;;;7.39;100.00
62420;BME280;48460;51.616;5.426;2023-03-19T06:31:07;101063.03;;;7.44;100.00
62420;BME280;48460;51.616;5.426;2023-03-19T06:33:33;101068.19;;;7.46;100.00
62420;BME280;48460;51.616;5.426;2023-03-19T06:36:06;101069.03;;;7.46;100.00
62420;BME280;48460;51.616;5.426;2023-03-19T06:38:37;101076.78;;;7.49;100.00
62420;BME280;48460;51.616;5.426;2023-03-19T06:41:17;101075.03;;;7.50;100.00
62420;BME280;48460;51.616;5.426;2023-03-19T06:43:53;101074.22;;;7.48;100.00
62420;BME280;48460;51.616;5.426;2023-03-19T06:46:26;101093.13;;;7.56;100.00
62420;BME280;48460;51.616;5.426;2023-03-19T06:48:53;101083.66;;;7.52;100.00
62420;BME280;48460;51.616;5.426;2023-03-19T06:51:22;101096.75;;;7.52;100.00
62420;BME280;48460;51.616;5.426;2023-03-19T06:53:58;101083.09;;;7.44;100.00
62420;BME280;48460;51.616;5.426;2023-03-19T06:56:33;101088.22;;;7.47;100.00
62420;BME280;48460;51.616;5.426;2023-03-19T06:58:58;101088.13;;;7.50;100.00
62420;BME280;48460;51.616;5.426;2023-03-19T07:01:29;101097.31;;;7.62;100.00
62420;BME280;48460;51.616;5.426;2023-03-19T07:03:59;101083.44;;;7.58;100.00
62420;BME280;48460;51.616;5.426;2023-03-19T07:06:27;101097.00;;;7.69;100.00
62420;BME280;48460;51.616;5.426;2023-03-19T07:09:18;101117.63;;;7.79;100.00
62420;BME280;48460;51.616;5.426;2023-03-19T07:11:43;101107.25;;;7.75;100.00
62420;BME280;48460;51.616;5.426;2023-03-19T07:14:13;101111.38;;;7.83;100.00
62420;BME280;48460;51.616;5.426;2023-03-19T07:16:41;101107.09;;;7.80;100.00
62420;BME280;48460;51.616;5.426;2023-03-19T07:19:14;101116.28;;;7.92;100.00
62420;BME280;48460;51.616;5.426;2023-03-19T07:21:44;101104.06;;;7.91;100.00
62420;BME280;48460;51.616;5.426;2023-03-19T07:24:20;101104.66;;;7.99;100.00
62420;BME280;48460;51.616;5.426;2023-03-19T07:26:45;101112.16;;;8.08;100.00
62420;BME280;48460;51.616;5.426;2023-03-19T07:29:14;101114.28;;;8.22;100.00
62420;BME280;48460;51.616;5.426;2023-03-19T07:31:49;101130.06;;;8.44;100.00
62420;BME280;48460;51.616;5.426;2023-03-19T07:34:24;101142.56;;;8.59;100.00
62420;BME280;48460;51.616;5.426;2023-03-19T07:36:54;101141.25;;;8.71;100.00
62420;BME280;48460;51.616;5.426;2023-03-19T07:39:23;101139.66;;;8.89;100.00
62420;BME280;48460;51.616;5.426;2023-03-19T07:42:08;101144.22;;;9.06;100.00
62420;BME280;48460;51.616;5.426;2023-03-19T07:44:55;101135.97;;;9.15;100.00
62420;BME280;48460;51.616;5.426;2023-03-19T07:47:30;101133.22;;;9.18;100.00
62420;BME280;48460;51.616;5.426;2023-03-19T07:50:11;101138.94;;;9.28;100.00
62420;BME280;48460;51.616;5.426;2023-03-19T07:52:52;101143.88;;;9.35;100.00
62420;BME280;48460;51.616;5.426;2023-03-19T07:55:22;101133.78;;;9.47;100.00
62420;BME280;48460;51.616;5.426;2023-03-19T08:00:40;101140.28;;;9.79;100.00
62420;BME280;48460;51.616;5.426;2023-03-19T08:03:11;101139.91;;;9.87;100.00
62420;BME280;48460;51.616;5.426;2023-03-19T08:05:54;101147.88;;;9.85;100.00
62420;BME280;48460;51.616;5.426;2023-03-19T08:08:27;101154.69;;;9.89;100.00
62420;BME280;48460;51.616;5.426;2023-03-19T08:11:06;101155.63;;;9.88;100.00
62420;BME280;48460;51.616;5.426;2023-03-19T08:13:35;101158.13;;;9.71;100.00
62420;BME280;48460;51.616;5.426;2023-03-19T08:16:14;101145.53;;;9.58;100.00
62420;BME280;48460;51.616;5.426;2023-03-19T08:18:46;101151.94;;;9.51;100.00
62420;BME280;48460;51.616;5.426;2023-03-19T08:21:12;101150.34;;;9.49;100.00
62420;BME280;48460;51.616;5.426;2023-03-19T08:23:48;101151.22;;;9.48;100.00
62420;BME280;48460;51.616;5.426;2023-03-19T08:26:24;101152.06;;;9.48;100.00
62420;BME280;48460;51.616;5.426;2023-03-19T08:28:52;101157.88;;;9.56;100.00
62420;BME280;48460;51.616;5.426;2023-03-19T08:31:28;101168.56;;;9.72;100.00
62420;BME280;48460;51.616;5.426;2023-03-19T08:34:14;101166.00;;;9.91;100.00
62420;BME280;48460;51.616;5.426;2023-03-19T08:36:47;101182.84;;;10.26;100.00
62420;BME280;48460;51.616;5.426;2023-03-19T08:39:29;101172.69;;;10.38;100.00
62420;BME280;48460;51.616;5.426;2023-03-19T08:41:55;101178.41;;;10.47;100.00
62420;BME280;48460;51.616;5.426;2023-03-19T08:44:28;101184.78;;;10.61;100.00
62420;BME280;48460;51.616;5.426;2023-03-19T08:47:06;101191.38;;;10.69;100.00
62420;BME280;48460;51.616;5.426;2023-03-19T08:49:52;101191.22;;;10.91;100.00
62420;BME280;48460;51.616;5.426;2023-03-19T08:52:52;101179.28;;;11.21;100.00
62420;BME280;48460;51.616;5.426;2023-03-19T08:55:34;101180.78;;;11.44;100.00
62420;BME280;48460;51.616;5.426;2023-03-19T09:03:31;101200.56;;;11.87;100.00
62420;BME280;48460;51.616;5.426;2023-03-19T09:20:53;101220.72;;;11.88;100.00
62420;BME280;48460;51.616;5.426;2023-03-19T09:30:16;101223.00;;;12.45;100.00
62420;BME280;48460;51.616;5.426;2023-03-19T09:32:56;101229.19;;;12.77;100.00
62420;BME280;48460;51.616;5.426;2023-03-19T09:35:26;101230.94;;;13.08;100.00
62420;BME280;48460;51.616;5.426;2023-03-19T09:38:00;101224.88;;;13.54;100.00
62420;BME280;48460;51.616;5.426;2023-03-19T09:40:50;101231.28;;;13.94;100.00
62420;BME280;48460;51.616;5.426;2023-03-19T09:43:45;101248.72;;;14.41;99.03
62420;BME280;48460;51.616;5.426;2023-03-19T09:46:21;101243.72;;;14.65;96.19
62420;BME280;48460;51.616;5.426;2023-03-19T09:49:13;101255.50;;;15.02;94.84
62420;BME280;48460;51.616;5.426;2023-03-19T09:54:44;101250.22;;;15.30;93.29
62420;BME280;48460;51.616;5.426;2023-03-19T09:57:27;101263.88;;;15.50;90.20
62420;BME280;48460;51.616;5.426;2023-03-19T09:59:57;101251.09;;;15.70;91.54
62420;BME280;48460;51.616;5.426;2023-03-19T10:02:30;101254.31;;;15.75;87.36
62420;BME280;48460;51.616;5.426;2023-03-19T10:08:18;101253.81;;;16.47;87.66
62420;BME280;48460;51.616;5.426;2023-03-19T10:13:55;101248.78;;;16.93;86.27
62420;BME280;48460;51.616;5.426;2023-03-19T10:16:26;101243.94;;;17.11;81.00
62420;BME280;48460;51.616;5.426;2023-03-19T10:19:01;101247.09;;;17.64;81.37
62420;BME280;48460;51.616;5.426;2023-03-19T10:21:36;101252.03;;;17.93;76.42
62420;BME280;48460;51.616;5.426;2023-03-19T10:24:42;101263.75;;;18.59;78.75
62420;BME280;48460;51.616;5.426;2023-03-19T10:27:21;101250.38;;;18.26;74.21
62420;BME280;48460;51.616;5.426;2023-03-19T10:29:54;101264.56;;;17.56;76.69
62420;BME280;48460;51.616;5.426;2023-03-19T10:32:43;101270.28;;;17.14;82.25
62420;BME280;48460;51.616;5.426;2023-03-19T10:35:23;101273.75;;;16.65;81.37
62420;BME280;48460;51.616;5.426;2023-03-19T10:37:54;101274.06;;;15.84;84.79
62420;BME280;48460;51.616;5.426;2023-03-19T10:40:34;101271.75;;;15.65;89.04
62420;BME280;48460;51.616;5.426;2023-03-19T10:43:23;101283.75;;;15.43;89.36
62420;BME280;48460;51.616;5.426;2023-03-19T10:46:01;101273.53;;;15.10;90.10
62420;BME280;48460;51.616;5.426;2023-03-19T10:48:29;101273.63;;;15.23;88.70
62420;BME280;48460;51.616;5.426;2023-03-19T10:51:10;101268.97;;;15.26;88.03
62420;BME280;48460;51.616;5.426;2023-03-19T10:53:53;101276.31;;;15.36;89.29
62420;BME280;48460;51.616;5.426;2023-03-19T10:56:26;101278.97;;;15.63;90.53
62420;BME280;48460;51.616;5.426;2023-03-19T10:59:06;101274.59;;;15.89;90.22
62420;BME280;48460;51.616;5.426;2023-03-19T11:04:18;101276.44;;;16.14;87.75
62420;BME280;48460;51.616;5.426;2023-03-19T11:07:09;101280.38;;;16.21;87.25
62420;BME280;48460;51.616;5.426;2023-03-19T11:09:56;101278.56;;;16.22;85.26
62420;BME280;48460;51.616;5.426;2023-03-19T11:12:36;101289.81;;;16.38;86.53
62420;BME280;48460;51.616;5.426;2023-03-19T11:15:02;101288.00;;;16.26;85.45
62420;BME280;48460;51.616;5.426;2023-03-19T11:21:34;101288.63;;;16.68;84.83
62420;BME280;48460;51.616;5.426;2023-03-19T11:24:03;101283.53;;;16.90;81.54
62420;BME280;48460;51.616;5.426;2023-03-19T11:26:38;101280.25;;;18.07;80.89
62420;BME280;48460;51.616;5.426;2023-03-19T11:29:08;101300.72;;;19.30;74.77
62420;BME280;48460;51.616;5.426;2023-03-19T11:31:46;101285.03;;;20.12;69.04
62420;BME280;48460;51.616;5.426;2023-03-19T11:34:57;101294.38;;;21.29;68.26
62420;BME280;48460;51.616;5.426;2023-03-19T11:40:53;101293.75;;;21.95;61.28
62420;BME280;48460;51.616;5.426;2023-03-19T11:44:06;101307.53;;;20.92;63.64
62420;BME280;48460;51.616;5.426;2023-03-19T11:55:30;101283.06;;;20.14;66.79
62420;BME280;48460;51.616;5.426;2023-03-19T12:00:51;101295.72;;;20.43;62.85
62420;BME280;48460;51.616;5.426;2023-03-19T12:06:47;101313.72;;;22.01;62.69
62420;BME280;48460;51.616;5.426;2023-03-19T12:12:40;101301.06;;;22.60;55.93
62420;BME280;48460;51.616;5.426;2023-03-19T12:15:38;101292.72;;;23.28;56.75
62420;BME280;48460;51.616;5.426;2023-03-19T12:24:09;101287.03;;;21.12;56.96
62420;BME280;48460;51.616;5.426;2023-03-19T12:27:31;101291.19;;;20.55;59.25
62420;BME280;48460;51.616;5.426;2023-03-19T12:30:28;101283.84;;;20.05;63.80
62420;BME280;48460;51.616;5.426;2023-03-19T12:36:15;101302.53;;;19.41;62.93
62420;BME280;48460;51.616;5.426;2023-03-19T12:39:14;101302.91;;;19.36;67.09
62420;BME280;48460;51.616;5.426;2023-03-19T12:41:45;101294.13;;;19.45;62.78
62420;BME280;48460;51.616;5.426;2023-03-19T12:44:34;101290.69;;;19.66;66.17
62420;BME280;48460;51.616;5.426;2023-03-19T12:47:07;101298.34;;;19.59;63.18
62420;BME280;48460;51.616;5.426;2023-03-19T12:50:11;101289.31;;;20.03;65.56
62420;BME280;48460;51.616;5.426;2023-03-19T12:56:01;101306.59;;;21.12;59.42
62420;BME280;48460;51.616;5.426;2023-03-19T12:58:52;101306.38;;;20.33;62.65
62420;BME280;48460;51.616;5.426;2023-03-19T13:01:46;101306.81;;;19.64;63.46
62420;BME280;48460;51.616;5.426;2023-03-19T13:04:26;101311.25;;;20.07;63.98
62420;BME280;48460;51.616;5.426;2023-03-19T13:07:10;101309.88;;;19.92;62.69
62420;BME280;48460;51.616;5.426;2023-03-19T13:12:23;101305.28;;;18.96;63.67
62420;BME280;48460;51.616;5.426;2023-03-19T14:10:32;101334.22;;;21.23;57.29
62420;BME280;48460;51.616;5.426;2023-03-19T14:13:42;101345.56;;;21.36;57.96
62420;BME280;48460;51.616;5.426;2023-03-19T14:16:37;101329.59;;;22.51;53.82
62420;BME280;48460;51.616;5.426;2023-03-19T14:19:17;101321.94;;;23.03;51.17
62420;BME280;48460;51.616;5.426;2023-03-19T14:22:08;101325.63;;;23.48;49.58
62420;BME280;48460;51.616;5.426;2023-03-19T14:41:04;101329.19;;;24.02;46.52
62420;BME280;48460;51.616;5.426;2023-03-19T14:52:48;101352.41;;;23.12;47.20
62420;BME280;48460;51.616;5.426;2023-03-19T14:55:32;101342.31;;;22.49;47.56
62420;BME280;48460;51.616;5.426;2023-03-19T15:21:20;101346.63;;;19.56;58.32
62420;BME280;48460;51.616;5.426;2023-03-19T16:17:55;101407.41;;;15.16;77.29
62420;BME280;48460;51.616;5.426;2023-03-19T16:37:40;101438.06;;;14.91;78.90
62420;BME280;48460;51.616;5.426;2023-03-19T16:47:20;101445.13;;;14.46;83.11
62420;BME280;48460;51.616;5.426;2023-03-19T16:50:20;101441.59;;;14.31;82.64
62420;BME280;48460;51.616;5.426;2023-03-19T16:53:26;101451.81;;;14.22;81.87
62420;BME280;48460;51.616;5.426;2023-03-19T16:56:03;101459.03;;;14.04;83.19
62420;BME280;48460;51.616;5.426;2023-03-19T16:58:55;101450.69;;;13.96;83.55
62420;BME280;48460;51.616;5.426;2023-03-19T17:01:33;101463.06;;;13.95;84.63
62420;BME280;48460;51.616;5.426;2023-03-19T17:04:15;101479.09;;;13.92;83.78
62420;BME280;48460;51.616;5.426;2023-03-19T17:06:51;101469.53;;;13.74;84.58
62420;BME280;48460;51.616;5.426;2023-03-19T17:18:18;101499.16;;;13.47;85.60
62420;BME280;48460;51.616;5.426;2023-03-19T17:21:31;101497.44;;;13.30;85.62
62420;BME280;48460;51.616;5.426;2023-03-19T17:32:49;101530.13;;;12.75;87.95
62420;BME280;48460;51.616;5.426;2023-03-19T17:38:30;101543.28;;;12.58;89.21
62420;BME280;48460;51.616;5.426;2023-03-19T17:40:59;101538.91;;;12.40;88.67
62420;BME280;48460;51.616;5.426;2023-03-19T17:44:05;101566.88;;;12.44;88.75
62420;BME280;48460;51.616;5.426;2023-03-19T17:46:51;101545.06;;;12.21;91.14
62420;BME280;48460;51.616;5.426;2023-03-19T17:49:49;101557.00;;;12.11;90.15
62420;BME280;48460;51.616;5.426;2023-03-19T17:52:51;101562.75;;;12.00;90.46
62420;BME280;48460;51.616;5.426;2023-03-19T17:58:33;101580.72;;;12.11;88.86
62420;BME280;48460;51.616;5.426;2023-03-19T18:22:13;101602.47;;;11.36;94.02
62420;BME280;48460;51.616;5.426;2023-03-19T18:28:23;101619.88;;;11.20;94.60
62420;BME280;48460;51.616;5.426;2023-03-19T18:31:31;101618.66;;;11.06;93.57
62420;BME280;48460;51.616;5.426;2023-03-19T18:44:48;101659.50;;;10.94;96.23
62420;BME280;48460;51.616;5.426;2023-03-19T18:47:43;101660.53;;;10.90;95.46
62420;BME280;48460;51.616;5.426;2023-03-19T18:50:45;101660.75;;;10.86;94.96
62420;BME280;48460;51.616;5.426;2023-03-19T18:53:17;101667.88;;;10.82;96.09
62420;BME280;48460;51.616;5.426;2023-03-19T18:55:49;101673.28;;;10.79;95.90
62420;BME280;48460;51.616;5.426;2023-03-19T19:01:53;101674.91;;;10.60;96.47
62420;BME280;48460;51.616;5.426;2023-03-19T19:04:28;101680.69;;;10.46;96.89
62420;BME280;48460;51.616;5.426;2023-03-19T19:06:58;101682.09;;;10.33;98.13
62420;BME280;48460;51.616;5.426;2023-03-19T19:09:37;101689.88;;;10.36;99.16
62420;BME280;48460;51.616;5.426;2023-03-19T19:12:15;101678.78;;;10.26;99.07
62420;BME280;48460;51.616;5.426;2023-03-19T19:14:51;101689.16;;;10.31;98.85
62420;BME280;48460;51.616;5.426;2023-03-19T19:17:19;101682.78;;;10.13;100.00
62420;BME280;48460;51.616;5.426;2023-03-19T19:22:39;101674.38;;;10.03;100.00
62420;BME280;48460;51.616;5.426;2023-03-19T19:25:26;101698.06;;;10.01;100.00